createdAt,value
2023-03-13T00:01:18.061Z,96.20
2023-03-13T00:03:45.711Z,96.30
2023-03-13T00:06:13.482Z,96.50
2023-03-13T00:08:41.414Z,96.30
2023-03-13T00:11:11.927Z,96.40
2023-03-13T00:13:39.761Z,96.70
2023-03-13T00:16:09.930Z,96.60
2023-03-13T00:18:37.797Z,96.50
2023-03-13T00:21:08.670Z,96.90
2023-03-13T00:23:38.585Z,96.80
2023-03-13T00:26:08.875Z,96.80
2023-03-13T00:28:38.476Z,96.60
2023-03-13T00:31:14.729Z,96.90
2023-03-13T00:33:44.564Z,97.20
2023-03-13T00:36:20.634Z,96.90
2023-03-13T00:38:48.458Z,97.00
2023-03-13T00:41:19.609Z,97.20
2023-03-13T00:43:48.415Z,97.10
2023-03-13T00:46:18.258Z,97.10
2023-03-13T00:48:46.023Z,97.00
2023-03-13T00:51:14.927Z,97.10
2023-03-13T00:53:43.202Z,97.60
2023-03-13T00:56:13.233Z,97.40
2023-03-13T00:58:42.787Z,97.50
2023-03-13T01:01:11.669Z,97.20
2023-03-13T01:03:40.842Z,97.50
2023-03-13T01:06:11.501Z,97.30
2023-03-13T01:08:39.537Z,97.20
2023-03-13T01:11:28.554Z,97.70
2023-03-13T01:13:58.481Z,97.50
2023-03-13T01:16:27.389Z,97.30
2023-03-13T01:18:57.323Z,97.60
2023-03-13T01:21:25.735Z,97.70
2023-03-13T01:23:54.129Z,97.50
2023-03-13T01:26:23.141Z,97.70
2023-03-13T01:28:51.181Z,97.90
2023-03-13T01:31:21.704Z,98.20
2023-03-13T01:33:52.771Z,97.70
2023-03-13T01:36:20.565Z,97.60
2023-03-13T01:38:53.266Z,97.70
2023-03-13T01:41:22.002Z,97.60
2023-03-13T01:43:49.631Z,98.10
2023-03-13T01:46:20.231Z,98.10
2023-03-13T01:49:12.203Z,98.30
2023-03-13T01:51:54.114Z,98.30
2023-03-13T01:54:44.698Z,98.10
2023-03-13T01:57:51.070Z,98.40
2023-03-13T02:00:23.565Z,98.40
2023-03-13T02:02:54.937Z,98.70
2023-03-13T02:05:26.367Z,98.70
2023-03-13T02:07:59.765Z,99.10
2023-03-13T02:10:28.664Z,98.70
2023-03-13T02:12:56.974Z,98.80
2023-03-13T02:15:26.949Z,98.60
2023-03-13T02:17:55.533Z,98.70
2023-03-13T02:20:23.588Z,98.70
2023-03-13T02:22:56.993Z,98.70
2023-03-13T02:25:24.629Z,98.90
2023-03-13T02:28:05.756Z,99.10
2023-03-13T02:30:34.280Z,98.90
2023-03-13T02:33:03.196Z,98.90
2023-03-13T02:35:32.252Z,98.70
2023-03-13T02:38:10.876Z,98.90
2023-03-13T02:40:42.264Z,99.10
2023-03-13T02:43:17.440Z,98.90
2023-03-13T02:46:11.882Z,98.80
2023-03-13T02:48:51.679Z,98.50
2023-03-13T02:51:42.240Z,98.50
2023-03-13T02:54:13.227Z,98.90
2023-03-13T02:56:43.481Z,99.00
2023-03-13T02:59:11.182Z,98.90
2023-03-13T03:01:38.846Z,99.20
2023-03-13T03:04:06.431Z,98.70
2023-03-13T03:06:34.108Z,98.80
2023-03-13T03:09:01.693Z,99.20
2023-03-13T03:11:29.306Z,99.00
2023-03-13T03:13:56.834Z,98.90
2023-03-13T03:16:24.423Z,99.10
2023-03-13T03:18:52.031Z,99.30
2023-03-13T03:21:19.669Z,99.20
2023-03-13T03:23:47.328Z,98.80
2023-03-13T03:26:14.911Z,99.10
2023-03-13T03:28:42.547Z,99.20
2023-03-13T03:31:12.111Z,98.90
2023-03-13T03:33:40.111Z,99.20
2023-03-13T03:36:10.932Z,99.10
2023-03-13T03:38:40.108Z,99.20
2023-03-13T03:41:09.333Z,99.60
2023-03-13T03:43:36.996Z,99.40
2023-03-13T03:46:04.777Z,99.60
2023-03-13T03:48:32.662Z,99.20
2023-03-13T03:51:00.355Z,99.60
2023-03-13T03:53:28.502Z,99.30
2023-03-13T03:55:56.182Z,99.60
2023-03-13T03:58:23.841Z,99.30
2023-03-13T04:00:51.372Z,99.40
2023-03-13T04:03:19.087Z,99.30
2023-03-13T04:05:46.634Z,99.30
2023-03-13T04:08:15.033Z,99.40
2023-03-13T04:10:42.734Z,99.50
2023-03-13T04:13:10.405Z,99.30
2023-03-13T04:15:42.001Z,99.70
2023-03-13T04:18:09.626Z,99.70
2023-03-13T04:20:37.230Z,99.90
2023-03-13T04:23:04.792Z,99.70
2023-03-13T04:25:32.408Z,99.80
2023-03-13T04:27:59.940Z,99.70
2023-03-13T04:30:27.515Z,99.90
2023-03-13T04:32:55.132Z,99.90
2023-03-13T04:35:22.745Z,99.70
2023-03-13T04:37:50.325Z,99.80
2023-03-13T04:40:17.960Z,99.90
2023-03-13T04:42:45.545Z,99.90
2023-03-13T04:45:13.587Z,99.90
2023-03-13T04:47:41.138Z,99.90
2023-03-13T04:50:09.237Z,99.90
2023-03-13T04:52:36.788Z,99.90
2023-03-13T04:55:04.594Z,99.90
2023-03-13T04:57:32.160Z,99.90
2023-03-13T04:59:59.673Z,99.90
2023-03-13T05:02:27.184Z,99.90
2023-03-13T05:04:54.770Z,99.90
2023-03-13T05:07:22.433Z,99.90
2023-03-13T05:09:50.023Z,99.90
2023-03-13T05:12:17.725Z,99.90
2023-03-13T05:14:45.234Z,99.90
2023-03-13T05:17:14.686Z,99.90
2023-03-13T05:19:42.257Z,99.90
2023-03-13T05:22:09.924Z,99.90
2023-03-13T05:24:38.682Z,99.90
2023-03-13T05:27:07.101Z,99.90
2023-03-13T05:29:34.675Z,99.90
2023-03-13T05:32:02.268Z,99.90
2023-03-13T05:34:29.965Z,99.90
2023-03-13T05:36:57.608Z,99.90
2023-03-13T05:39:25.312Z,99.90
2023-03-13T05:41:52.844Z,99.90
2023-03-13T05:44:20.450Z,99.90
2023-03-13T05:46:48.111Z,99.90
2023-03-13T05:49:15.734Z,99.90
2023-03-13T05:51:43.296Z,99.90
2023-03-13T05:54:11.556Z,99.90
2023-03-13T05:56:40.169Z,99.90
2023-03-13T05:59:07.713Z,99.90
2023-03-13T06:01:35.252Z,99.90
2023-03-13T06:04:03.034Z,99.90
2023-03-13T06:06:30.650Z,99.90
2023-03-13T06:08:58.172Z,99.90
2023-03-13T06:11:25.761Z,99.90
2023-03-13T06:13:53.573Z,99.90
2023-03-13T06:16:21.277Z,99.90
2023-03-13T06:18:48.875Z,99.90
2023-03-13T06:21:18.690Z,99.90
2023-03-13T06:23:46.676Z,99.90
2023-03-13T06:26:14.266Z,99.90
2023-03-13T06:28:41.898Z,99.90
2023-03-13T06:31:10.846Z,99.90
2023-03-13T06:33:38.444Z,99.90
2023-03-13T06:36:06.571Z,99.90
2023-03-13T06:38:34.543Z,99.90
2023-03-13T06:41:02.380Z,99.90
2023-03-13T06:43:30.269Z,99.90
2023-03-13T06:45:58.099Z,99.90
2023-03-13T06:48:25.742Z,99.90
2023-03-13T06:50:54.505Z,99.90
2023-03-13T06:53:22.134Z,99.90
2023-03-13T06:55:49.765Z,99.90
2023-03-13T06:58:31.589Z,99.90
2023-03-13T07:01:06.155Z,99.90
2023-03-13T07:03:34.094Z,99.90
2023-03-13T07:06:01.949Z,99.90
2023-03-13T07:08:29.601Z,99.90
2023-03-13T07:11:05.667Z,99.90
2023-03-13T07:13:33.593Z,99.90
2023-03-13T07:16:12.581Z,99.90
2023-03-13T07:18:45.096Z,99.90
2023-03-13T07:21:13.540Z,99.90
2023-03-13T07:23:41.208Z,99.90
2023-03-13T07:26:14.883Z,99.90
2023-03-13T07:28:43.578Z,99.90
2023-03-13T07:31:22.091Z,99.90
2023-03-13T07:33:50.009Z,99.90
2023-03-13T07:36:17.591Z,99.90
2023-03-13T07:38:51.796Z,99.90
2023-03-13T07:41:20.785Z,99.90
2023-03-13T07:43:48.519Z,99.90
2023-03-13T07:46:21.897Z,99.90
2023-03-13T07:48:50.014Z,99.90
2023-03-13T07:51:25.181Z,99.90
2023-03-13T07:53:57.937Z,99.90
2023-03-13T07:56:25.627Z,99.90
2023-03-13T07:58:53.246Z,99.90
2023-03-13T08:01:29.117Z,99.90
2023-03-13T08:04:01.421Z,99.90
2023-03-13T08:06:33.778Z,99.90
2023-03-13T08:09:02.089Z,99.90
2023-03-13T08:11:30.050Z,99.90
2023-03-13T08:13:58.545Z,99.90
2023-03-13T08:16:29.160Z,99.90
2023-03-13T08:18:59.475Z,99.90
2023-03-13T08:21:32.362Z,99.90
2023-03-13T08:24:02.831Z,99.90
2023-03-13T08:26:31.351Z,99.90
2023-03-13T08:29:01.569Z,99.90
2023-03-13T08:31:38.108Z,99.90
2023-03-13T08:34:05.850Z,99.90
2023-03-13T08:36:37.776Z,99.90
2023-03-13T08:39:17.194Z,99.90
2023-03-13T08:41:45.233Z,99.90
2023-03-13T08:44:15.375Z,99.90
2023-03-13T08:46:44.468Z,99.90
2023-03-13T08:49:12.642Z,99.90
2023-03-13T08:51:40.666Z,99.90
2023-03-13T08:54:08.522Z,99.90
2023-03-13T08:56:37.075Z,99.90
2023-03-13T08:59:05.913Z,99.90
2023-03-13T09:01:35.246Z,99.90
2023-03-13T09:04:04.866Z,99.90
2023-03-13T09:06:34.114Z,99.90
2023-03-13T09:09:02.739Z,99.90
2023-03-13T09:11:30.635Z,99.90
2023-03-13T09:14:01.171Z,99.90
2023-03-13T09:16:30.806Z,99.90
2023-03-13T09:18:59.285Z,99.90
2023-03-13T09:21:32.584Z,99.90
2023-03-13T09:24:01.064Z,99.90
2023-03-13T09:26:29.259Z,99.90
2023-03-13T09:28:57.345Z,99.90
2023-03-13T09:31:27.917Z,99.90
2023-03-13T09:33:55.769Z,99.90
2023-03-13T09:36:26.546Z,99.90
2023-03-13T09:38:56.368Z,99.90
2023-03-13T09:41:26.190Z,99.90
2023-03-13T09:44:06.253Z,99.90
2023-03-13T09:46:57.518Z,99.90
2023-03-13T09:49:39.931Z,99.90
2023-03-13T09:52:15.421Z,99.90
2023-03-13T09:54:59.758Z,99.90
2023-03-13T09:57:37.078Z,99.90
2023-03-13T10:00:20.182Z,99.90
2023-03-13T10:02:58.400Z,99.90
2023-03-13T10:05:29.298Z,99.90
2023-03-13T10:08:01.940Z,99.90
2023-03-13T10:10:47.450Z,99.90
2023-03-13T10:13:32.081Z,99.90
2023-03-13T10:16:10.009Z,99.90
2023-03-13T10:18:39.068Z,99.90
2023-03-13T10:21:20.940Z,99.90
2023-03-13T10:23:58.272Z,99.90
2023-03-13T10:26:29.654Z,99.90
2023-03-13T10:29:16.654Z,99.90
2023-03-13T10:31:58.414Z,99.90
2023-03-13T10:34:28.359Z,99.90
2023-03-13T10:36:59.826Z,99.90
2023-03-13T10:39:30.085Z,99.90
2023-03-13T10:42:09.930Z,99.90
2023-03-13T10:44:37.947Z,99.90
2023-03-13T10:47:06.821Z,99.90
2023-03-13T10:49:34.659Z,99.90
2023-03-13T10:52:05.235Z,99.90
2023-03-13T10:54:39.897Z,99.90
2023-03-13T10:57:37.024Z,99.90
2023-03-13T11:00:23.339Z,99.90
2023-03-13T11:02:51.312Z,99.90
2023-03-13T11:05:31.828Z,99.90
2023-03-13T11:08:11.141Z,99.90
2023-03-13T11:10:50.948Z,99.90
2023-03-13T11:13:36.950Z,99.90
2023-03-13T11:16:28.553Z,99.90
2023-03-13T11:19:10.832Z,99.90
2023-03-13T11:22:02.051Z,99.90
2023-03-13T11:25:08.532Z,99.90
2023-03-13T11:27:51.891Z,99.90
2023-03-13T11:30:42.402Z,99.90
2023-03-13T11:33:51.308Z,99.90
2023-03-13T11:36:31.194Z,99.90
2023-03-13T11:39:11.979Z,99.90
2023-03-13T11:41:57.641Z,99.90
2023-03-13T11:44:31.812Z,99.90
2023-03-13T11:47:26.618Z,99.90
2023-03-13T11:50:12.589Z,99.90
2023-03-13T11:53:10.330Z,99.90
2023-03-13T11:56:07.348Z,99.90
2023-03-13T11:58:57.872Z,99.90
2023-03-13T12:01:34.802Z,99.90
2023-03-13T12:04:25.472Z,99.90
2023-03-13T12:07:34.701Z,99.90
2023-03-13T12:10:16.534Z,99.90
2023-03-13T12:13:13.195Z,99.90
2023-03-13T12:15:58.212Z,99.90
2023-03-13T12:18:35.583Z,99.90
2023-03-13T12:21:18.201Z,99.90
2023-03-13T12:23:48.584Z,99.90
2023-03-13T12:26:26.237Z,99.90
2023-03-13T12:29:30.606Z,99.90
2023-03-13T12:32:13.690Z,99.90
2023-03-13T12:34:53.087Z,99.90
2023-03-13T12:37:55.300Z,99.90
2023-03-13T12:40:53.619Z,99.90
2023-03-13T12:43:43.227Z,99.90
2023-03-13T12:46:37.694Z,99.90
2023-03-13T12:49:23.553Z,99.90
2023-03-13T12:52:26.708Z,99.90
2023-03-13T12:55:34.670Z,99.90
2023-03-13T12:58:26.126Z,99.90
2023-03-13T13:00:55.661Z,99.90
2023-03-13T13:03:39.658Z,99.90
2023-03-13T13:06:09.020Z,99.90
2023-03-13T13:08:43.099Z,99.90
2023-03-13T13:11:35.668Z,99.90
2023-03-13T13:14:06.574Z,99.90
2023-03-13T13:16:34.475Z,99.90
2023-03-13T13:19:24.111Z,99.90
2023-03-13T13:22:29.238Z,99.90
2023-03-13T13:25:18.666Z,99.90
2023-03-13T13:27:47.449Z,99.90
2023-03-13T13:30:17.876Z,99.90
2023-03-13T13:32:50.884Z,99.90
2023-03-13T13:35:27.495Z,99.90
2023-03-13T13:38:20.858Z,99.90
2023-03-13T13:41:09.809Z,99.90
2023-03-13T13:43:44.902Z,99.90
2023-03-13T13:46:47.947Z,99.90
2023-03-13T13:49:20.764Z,99.90
2023-03-13T13:52:04.043Z,99.90
2023-03-13T13:54:34.108Z,99.90
2023-03-13T13:57:09.546Z,99.90
2023-03-13T13:59:43.205Z,99.90
2023-03-13T14:02:11.106Z,99.90
2023-03-13T14:04:44.482Z,99.90
2023-03-13T14:07:19.054Z,99.90
2023-03-13T14:09:59.542Z,99.90
2023-03-13T14:12:28.658Z,99.90
2023-03-13T14:15:25.189Z,99.90
2023-03-13T14:18:00.743Z,99.90
2023-03-13T14:20:40.234Z,99.90
2023-03-13T14:23:12.143Z,99.80
2023-03-13T14:25:50.127Z,99.90
2023-03-13T14:28:20.543Z,99.60
2023-03-13T14:30:50.274Z,99.40
2023-03-13T14:33:18.558Z,99.60
2023-03-13T14:35:47.754Z,99.60
2023-03-13T14:38:26.833Z,99.50
2023-03-13T14:40:58.362Z,99.30
2023-03-13T14:43:41.919Z,98.60
2023-03-13T14:46:43.831Z,98.80
2023-03-13T14:49:21.189Z,98.40
2023-03-13T14:51:58.167Z,98.70
2023-03-13T14:54:32.257Z,98.50
2023-03-13T14:57:06.258Z,98.40
2023-03-13T14:59:33.860Z,98.30
2023-03-13T15:02:22.695Z,98.00
2023-03-13T15:04:54.621Z,97.90
2023-03-13T15:07:22.934Z,97.50
2023-03-13T15:09:51.002Z,97.90
2023-03-13T15:12:23.563Z,97.90
2023-03-13T15:14:53.177Z,97.80
2023-03-13T15:17:23.383Z,97.90
2023-03-13T15:19:57.227Z,97.90
2023-03-13T15:22:37.137Z,97.40
2023-03-13T15:25:14.874Z,98.00
2023-03-13T15:27:42.510Z,97.70
2023-03-13T15:30:15.035Z,97.40
2023-03-13T15:32:47.058Z,97.10
2023-03-13T15:35:32.677Z,97.30
2023-03-13T15:38:02.356Z,97.40
2023-03-13T15:40:31.272Z,97.20
2023-03-13T15:42:59.760Z,97.40
2023-03-13T15:45:27.396Z,97.60
2023-03-13T15:47:55.064Z,97.50
2023-03-13T15:50:29.916Z,97.50
2023-03-13T15:52:58.935Z,97.30
2023-03-13T15:55:28.080Z,97.60
2023-03-13T15:57:56.012Z,97.00
2023-03-13T16:00:26.305Z,96.90
2023-03-13T16:02:54.039Z,96.80
2023-03-13T16:05:21.653Z,96.80
2023-03-13T16:07:49.254Z,96.90
2023-03-13T16:10:29.472Z,96.90
2023-03-13T16:12:57.078Z,96.80
2023-03-13T16:15:27.711Z,96.50
2023-03-13T16:17:55.298Z,96.90
2023-03-13T16:20:23.952Z,96.80
2023-03-13T16:22:53.543Z,96.80
2023-03-13T16:25:22.260Z,96.90
2023-03-13T16:27:50.054Z,96.70
2023-03-13T16:30:22.835Z,96.70
2023-03-13T16:32:51.112Z,96.90
2023-03-13T16:35:18.894Z,97.00
2023-03-13T16:37:46.487Z,97.10
2023-03-13T16:40:20.344Z,97.00
2023-03-13T16:42:48.040Z,96.90
2023-03-13T16:45:16.310Z,96.90
2023-03-13T16:47:45.057Z,96.80
2023-03-13T16:50:38.159Z,96.70
2023-03-13T16:53:05.815Z,96.50
2023-03-13T16:55:37.913Z,96.60
2023-03-13T16:58:09.212Z,96.70
2023-03-13T17:00:37.965Z,96.30
2023-03-13T17:03:05.706Z,96.30
2023-03-13T17:05:33.497Z,96.10
2023-03-13T17:08:01.080Z,96.30
2023-03-13T17:10:33.693Z,95.90
2023-03-13T17:13:01.528Z,95.80
2023-03-13T17:15:30.268Z,95.80
2023-03-13T17:17:58.131Z,95.80
2023-03-13T17:20:28.437Z,95.70
2023-03-13T17:22:56.821Z,95.70
2023-03-13T17:25:25.455Z,95.80
2023-03-13T17:27:53.812Z,95.50
2023-03-13T17:30:30.542Z,95.30
2023-03-13T17:33:00.225Z,95.20
2023-03-13T17:35:27.849Z,95.60
2023-03-13T17:37:55.563Z,95.70
2023-03-13T17:40:29.022Z,95.50
2023-03-13T17:42:57.569Z,95.40
2023-03-13T17:45:26.068Z,95.40
2023-03-13T17:47:55.094Z,95.10
2023-03-13T17:50:27.490Z,95.10
2023-03-13T17:52:56.270Z,95.30
2023-03-13T17:55:24.658Z,95.20
2023-03-13T17:57:53.628Z,95.00
2023-03-13T18:00:30.679Z,95.10
2023-03-13T18:02:59.477Z,95.30
2023-03-13T18:05:27.592Z,95.20
2023-03-13T18:07:58.522Z,95.00
2023-03-13T18:10:28.690Z,95.10
2023-03-13T18:12:56.961Z,94.80
2023-03-13T18:15:26.747Z,94.90
2023-03-13T18:17:54.974Z,94.70
2023-03-13T18:20:30.547Z,94.70
2023-03-13T18:23:01.008Z,94.60
2023-03-13T18:25:29.615Z,94.60
2023-03-13T18:27:57.941Z,94.60
2023-03-13T18:30:26.996Z,94.70
2023-03-13T18:32:54.724Z,94.70
2023-03-13T18:35:22.909Z,94.70
2023-03-13T18:37:51.807Z,94.20
2023-03-13T18:40:25.491Z,94.20
2023-03-13T18:42:53.296Z,94.60
2023-03-13T18:45:23.758Z,94.50
2023-03-13T18:47:51.441Z,94.80
2023-03-13T18:50:26.855Z,94.80
2023-03-13T18:52:59.604Z,94.50
2023-03-13T18:55:30.828Z,94.60
2023-03-13T18:57:58.557Z,94.60
2023-03-13T19:00:29.976Z,94.60
2023-03-13T19:02:58.494Z,94.70
2023-03-13T19:05:26.622Z,94.50
2023-03-13T19:07:54.910Z,94.60
2023-03-13T19:10:26.128Z,94.40
2023-03-13T19:12:55.666Z,94.40
2023-03-13T19:15:26.052Z,94.60
2023-03-13T19:17:55.696Z,94.50
2023-03-13T19:20:24.628Z,94.50
2023-03-13T19:22:53.974Z,94.50
2023-03-13T19:25:22.856Z,94.50
2023-03-13T19:27:50.469Z,94.50
2023-03-13T19:30:23.154Z,94.30
2023-03-13T19:32:51.270Z,94.00
2023-03-13T19:35:21.333Z,94.20
2023-03-13T19:37:49.500Z,94.40
2023-03-13T19:40:30.280Z,94.00
2023-03-13T19:42:57.986Z,94.00
2023-03-13T19:45:26.642Z,94.20
2023-03-13T19:47:57.272Z,94.10
2023-03-13T19:50:30.199Z,94.20
2023-03-13T19:52:57.884Z,94.20
2023-03-13T19:55:25.593Z,94.00
2023-03-13T19:57:53.463Z,94.00
2023-03-13T20:00:28.321Z,94.20
2023-03-13T20:02:56.160Z,93.90
2023-03-13T20:05:24.572Z,93.90
2023-03-13T20:07:54.202Z,93.80
2023-03-13T20:10:22.357Z,93.90
2023-03-13T20:12:50.206Z,93.90
2023-03-13T20:15:18.369Z,93.90
2023-03-13T20:17:46.001Z,93.60
2023-03-13T20:20:14.116Z,93.80
2023-03-13T20:22:42.089Z,93.90
2023-03-13T20:25:10.892Z,93.90
2023-03-13T20:27:39.455Z,93.70
2023-03-13T20:30:07.930Z,93.80
